world map with DTM marked

DTM - Airport

This information may not be accurate or current and is not valid for navigation or flight planning. No warranty of fitness for any purpose is made or implied.

flag of North Rhine-Westphaliaflag of Germany

Donate via PayPal

Additional information is available on the NEW Great Circle Mapper

Location
City:  Dortmund, North Rhine-Westphalia, Germany
Name:Wickede
ICAO / IATA:EDLW / DTM

Details
Type:Airport (Flugplatz, Airfield)
Use:Public/Civil
Latitude:51°31'06"N (51.518314)
Longitude:7°36'44"E (7.612242)
Datum:WGS 1984
Elevation:425 ft (130 m)
Runways:1
Longest:6562 × 148 ft (2000 × 45 m)

Time
Timezone:UTC+1 (DST+4)
Local Time:

Weather
METAR:EDLW  141920Z 27006KT 220V360 CAVOK 20/14 Q1016
TAF:EDLW  141700Z 1418/1518 29008KT 9999 BKN045 BECMG 1421/1424 23006KT

Related Locations
Nearby:
Farthest:CHT: 11866 mi / 19096 km
Waitangi [Tuuta], CIT, NZ

Find:

   beyond  
but within

Other Information
Maps:
Sources:

  


 


Great Circle Mapper   Great Circle Mapper
Great Circle Mapper FAQ   Great Circle Mapper FAQ
  Karl's Home Page
KLSē   KLSē Home
   GC on Facebook
Airlines of the World   Airlines of the World
Donate via PayPal


Copyright © 2004-2018, Karl L. Swartz. All rights reserved.
All trademarks mentioned herein belong to their respective owners.

Please see credits for attribution and copyright information.

Karl Swartz <karl@kls2.com>
  Powered by FreeBSD
Valid HTML 4.01!
Labeled with ICRA
hCard Microformat
Geo Microformat